Time,TemperatureF,DewpointF,PressureIn,WindDirection,WindDirectionDegrees,WindSpeedMPH,WindSpeedGustMPH,Humidity,HourlyPrecipIn,Conditions,Clouds,dailyrainin,SoftwareType,DateUTC
2013-04-17 02:00:00,44.0,37.0,-100.00,SSW,197,2.0,-999.0,74,0.00,,,-99.99,,2013-04-17 09:00:00,
2013-04-17 02:22:00,44.0,37.0,-100.00,SSW,197,2.0,-999.0,74,0.00,,,-99.99,,2013-04-17 09:22:00,
2013-04-17 02:33:00,44.0,37.0,-100.00,SSW,197,2.0,-999.0,74,0.00,,,-99.99,,2013-04-17 09:33:00,
2013-04-17 02:42:00,44.0,37.0,-100.00,SSW,197,2.0,-999.0,74,0.00,,,-99.99,,2013-04-17 09:42:00,
2013-04-17 02:52:00,44.0,37.0,-100.00,SSW,197,2.0,-999.0,74,0.00,,,-99.99,,2013-04-17 09:52:00,
2013-04-17 03:00:00,44.0,36.0,-100.00,SSE,159,2.0,-999.0,75,0.00,,,-99.99,,2013-04-17 10:00:00,
2013-04-17 03:23:00,44.0,36.0,-100.00,SSE,159,2.0,-999.0,75,0.00,,,-99.99,,2013-04-17 10:23:00,
2013-04-17 03:33:00,44.0,36.0,-100.00,SSE,159,2.0,-999.0,75,0.00,,,-99.99,,2013-04-17 10:33:00,
2013-04-17 03:43:00,44.0,36.0,-100.00,SSE,159,2.0,-999.0,75,0.00,,,-99.99,,2013-04-17 10:43:00,
2013-04-17 03:52:00,44.0,36.0,-100.00,SSE,159,2.0,-999.0,75,0.00,,,-99.99,,2013-04-17 10:52:00,
2013-04-17 04:00:00,41.0,36.0,-100.00,South,184,2.0,-999.0,81,0.00,,,-99.99,,2013-04-17 11:00:00,
2013-04-17 04:22:00,41.0,36.0,-100.00,South,184,2.0,-999.0,81,0.00,,,-99.99,,2013-04-17 11:22:00,
2013-04-17 04:32:00,41.0,36.0,-100.00,South,184,2.0,-999.0,81,0.00,,,-99.99,,2013-04-17 11:32:00,
2013-04-17 04:42:00,41.0,36.0,-100.00,South,184,2.0,-999.0,81,0.00,,,-99.99,,2013-04-17 11:42:00,
2013-04-17 04:52:00,41.0,36.0,-100.00,South,184,2.0,-999.0,81,0.00,,,-99.99,,2013-04-17 11:52:00,
2013-04-17 05:00:00,40.0,35.0,-100.00,SW,236,0.0,-999.0,83,0.00,,,-99.99,,2013-04-17 12:00:00,
2013-04-17 05:22:00,40.0,35.0,-100.00,SW,236,0.0,-999.0,83,0.00,,,-99.99,,2013-04-17 12:22:00,
2013-04-17 05:32:00,40.0,35.0,-100.00,SW,236,0.0,-999.0,83,0.00,,,-99.99,,2013-04-17 12:32:00,
2013-04-17 05:42:00,40.0,35.0,-100.00,SW,236,0.0,-999.0,83,0.00,,,-99.99,,2013-04-17 12:42:00,
2013-04-17 05:52:00,40.0,35.0,-100.00,SW,236,0.0,-999.0,83,0.00,,,-99.99,,2013-04-17 12:52:00,
2013-04-17 06:00:00,38.0,35.0,-100.00,South,180,2.0,-999.0,90,0.00,,,-99.99,,2013-04-17 13:00:00,
2013-04-17 06:22:00,38.0,35.0,-100.00,South,180,2.0,-999.0,90,0.00,,,-99.99,,2013-04-17 13:22:00,
2013-04-17 06:32:00,38.0,35.0,-100.00,South,180,2.0,-999.0,90,0.00,,,-99.99,,2013-04-17 13:32:00,
2013-04-17 06:42:00,38.0,35.0,-100.00,South,180,2.0,-999.0,90,0.00,,,-99.99,,2013-04-17 13:42:00,
2013-04-17 06:52:00,38.0,35.0,-100.00,South,180,2.0,-999.0,90,0.00,,,-99.99,,2013-04-17 13:52:00,
2013-04-17 07:00:00,36.0,34.0,-100.00,South,170,2.0,-999.0,92,0.00,,,-99.99,,2013-04-17 14:00:00,
2013-04-17 07:22:00,36.0,34.0,-100.00,South,170,2.0,-999.0,92,0.00,,,-99.99,,2013-04-17 14:22:00,
2013-04-17 07:32:00,36.0,34.0,-100.00,South,170,2.0,-999.0,92,0.00,,,-99.99,,2013-04-17 14:32:00,
2013-04-17 07:43:00,36.0,34.0,-100.00,South,170,2.0,-999.0,92,0.00,,,-99.99,,2013-04-17 14:43:00,
2013-04-17 07:52:00,36.0,34.0,-100.00,South,170,2.0,-999.0,92,0.00,,,-99.99,,2013-04-17 14:52:00,
2013-04-17 08:00:00,36.0,34.0,-100.00,SSE,162,3.0,-999.0,93,0.00,,,-99.99,,2013-04-17 15:00:00,
2013-04-17 08:22:00,36.0,34.0,-100.00,SSE,162,3.0,-999.0,93,0.00,,,-99.99,,2013-04-17 15:22:00,
2013-04-17 08:33:00,36.0,34.0,-100.00,SSE,162,3.0,-999.0,93,0.00,,,-99.99,,2013-04-17 15:33:00,
2013-04-17 08:43:00,36.0,34.0,-100.00,SSE,162,3.0,-999.0,93,0.00,,,-99.99,,2013-04-17 15:43:00,
2013-04-17 08:53:00,36.0,34.0,-100.00,SSE,162,3.0,-999.0,93,0.00,,,-99.99,,2013-04-17 15:53:00,
2013-04-17 09:00:00,42.0,35.0,-100.00,SSE,152,2.0,-999.0,78,0.00,,,-99.99,,2013-04-17 16:00:00,
2013-04-17 09:23:00,42.0,35.0,-100.00,SSE,152,2.0,-999.0,78,0.00,,,-99.99,,2013-04-17 16:23:00,
2013-04-17 09:32:00,42.0,35.0,-100.00,SSE,152,2.0,-999.0,78,0.00,,,-99.99,,2013-04-17 16:32:00,
2013-04-17 09:42:00,42.0,35.0,-100.00,SSE,152,2.0,-999.0,78,0.00,,,-99.99,,2013-04-17 16:42:00,
2013-04-17 09:52:00,42.0,35.0,-100.00,SSE,152,2.0,-999.0,78,0.00,,,-99.99,,2013-04-17 16:52:00,
2013-04-17 10:00:00,51.0,38.0,-100.00,South,190,3.0,-999.0,60,0.00,,,-99.99,,2013-04-17 17:00:00,
2013-04-17 10:22:00,51.0,38.0,-100.00,South,190,3.0,-999.0,60,0.00,,,-99.99,,2013-04-17 17:22:00,
2013-04-17 10:33:00,51.0,38.0,-100.00,South,190,3.0,-999.0,60,0.00,,,-99.99,,2013-04-17 17:33:00,
2013-04-17 10:42:00,51.0,38.0,-100.00,South,190,3.0,-999.0,60,0.00,,,-99.99,,2013-04-17 17:42:00,
2013-04-17 10:52:00,51.0,38.0,-100.00,South,190,3.0,-999.0,60,0.00,,,-99.99,,2013-04-17 17:52:00,
2013-04-17 11:00:00,57.0,-99.9,-100.00,West,281,3.0,-999.0,30,0.00,,,-99.99,,2013-04-17 18:00:00,
2013-04-17 11:22:00,57.0,26.0,-100.00,West,281,3.0,-999.0,30,0.00,,,-99.99,,2013-04-17 18:22:00,
2013-04-17 11:33:00,57.0,26.0,-100.00,West,281,3.0,-999.0,30,0.00,,,-99.99,,2013-04-17 18:33:00,
2013-04-17 11:42:00,57.0,-99.9,-100.00,West,281,3.0,-999.0,30,0.00,,,-99.99,,2013-04-17 18:42:00,
2013-04-17 11:53:00,57.0,-99.9,-100.00,West,281,3.0,-999.0,30,0.00,,,-99.99,,2013-04-17 18:53:00,
2013-04-17 12:00:00,62.0,28.0,-100.00,NW,315,2.0,-999.0,28,0.00,,,-99.99,,2013-04-17 19:00:00,
2013-04-17 12:22:00,62.0,28.0,-100.00,NW,315,2.0,-999.0,28,0.00,,,-99.99,,2013-04-17 19:22:00,
2013-04-17 12:32:00,62.0,28.0,-100.00,NW,315,2.0,-999.0,28,0.00,,,-99.99,,2013-04-17 19:32:00,
2013-04-17 12:42:00,62.0,28.0,-100.00,NW,315,2.0,-999.0,28,0.00,,,-99.99,,2013-04-17 19:42:00,
2013-04-17 12:52:00,62.0,28.0,-100.00,NW,315,2.0,-999.0,28,0.00,,,-99.99,,2013-04-17 19:52:00,
2013-04-17 13:00:00,62.0,26.0,-100.00,NNE,19,1.0,-999.0,25,0.00,,,-99.99,,2013-04-17 20:00:00,
2013-04-17 13:33:00,62.0,26.0,-100.00,NNE,19,1.0,-999.0,25,0.00,,,-99.99,,2013-04-17 20:33:00,
2013-04-17 13:42:00,62.0,26.0,-100.00,NNE,19,1.0,-999.0,25,0.00,,,-99.99,,2013-04-17 20:42:00,
2013-04-17 13:52:00,62.0,26.0,-100.00,NNE,19,1.0,-999.0,25,0.00,,,-99.99,,2013-04-17 20:52:00,
2013-04-17 14:00:00,65.0,-99.9,-100.00,SSW,211,3.0,-999.0,23,0.00,,,-99.99,,2013-04-17 21:00:00,
2013-04-17 14:22:00,65.0,26.0,-100.00,SSW,211,3.0,-999.0,23,0.00,,,-99.99,,2013-04-17 21:22:00,
2013-04-17 14:33:00,65.0,26.0,-100.00,SSW,211,3.0,-999.0,23,0.00,,,-99.99,,2013-04-17 21:33:00,
2013-04-17 14:43:00,65.0,-99.9,-100.00,SSW,211,3.0,-999.0,23,0.00,,,-99.99,,2013-04-17 21:43:00,
2013-04-17 14:53:00,65.0,-99.9,-100.00,SSW,211,3.0,-999.0,23,0.00,,,-99.99,,2013-04-17 21:53:00,
2013-04-17 15:00:00,67.0,29.0,-100.00,NNW,348,3.0,-999.0,24,0.00,,,-99.99,,2013-04-17 22:00:00,
2013-04-17 15:22:00,67.0,29.0,-100.00,NNW,348,3.0,-999.0,24,0.00,,,-99.99,,2013-04-17 22:22:00,
2013-04-17 15:33:00,67.0,29.0,-100.00,NNW,348,3.0,-999.0,24,0.00,,,-99.99,,2013-04-17 22:33:00,
2013-04-17 15:43:00,67.0,29.0,-100.00,NNW,348,3.0,-999.0,24,0.00,,,-99.99,,2013-04-17 22:43:00,
2013-04-17 15:53:00,67.0,29.0,-100.00,NNW,348,3.0,-999.0,24,0.00,,,-99.99,,2013-04-17 22:53:00,
2013-04-17 16:00:00,66.0,32.0,-100.00,NNW,337,3.0,-999.0,28,0.00,,,-99.99,,2013-04-17 23:00:00,
2013-04-17 16:22:00,66.0,32.0,-100.00,NNW,337,3.0,-999.0,28,0.00,,,-99.99,,2013-04-17 23:22:00,
2013-04-17 16:32:00,66.0,32.0,-100.00,NNW,337,3.0,-999.0,28,0.00,,,-99.99,,2013-04-17 23:32:00,
2013-04-17 16:42:00,66.0,32.0,-100.00,NNW,337,3.0,-999.0,28,0.00,,,-99.99,,2013-04-17 23:42:00,
2013-04-17 16:52:00,66.0,32.0,-100.00,NNW,337,3.0,-999.0,28,0.00,,,-99.99,,2013-04-17 23:52:00,
2013-04-17 17:00:00,66.0,36.0,-100.00,ENE,64,1.0,-999.0,32,0.00,,,-99.99,,2013-04-18 00:00:00,
2013-04-17 17:22:00,66.0,36.0,-100.00,ENE,64,1.0,-999.0,32,0.00,,,-99.99,,2013-04-18 00:22:00,
2013-04-17 17:32:00,66.0,36.0,-100.00,ENE,64,1.0,-999.0,32,0.00,,,-99.99,,2013-04-18 00:32:00,
2013-04-17 17:42:00,66.0,36.0,-100.00,ENE,64,1.0,-999.0,32,0.00,,,-99.99,,2013-04-18 00:42:00,
2013-04-17 17:52:00,66.0,36.0,-100.00,ENE,64,1.0,-999.0,32,0.00,,,-99.99,,2013-04-18 00:52:00,
2013-04-17 18:22:00,67.0,36.0,-100.00,NNW,334,6.0,-999.0,31,0.00,,,-99.99,,2013-04-18 01:22:00,
2013-04-17 18:32:00,67.0,36.0,-100.00,NNW,334,6.0,-999.0,31,0.00,,,-99.99,,2013-04-18 01:32:00,